Oceanside, Washington
Current Conditions -  °F | °C
As of 4:55 AM on Thursday 30 Oct 2014 (Local Time) from KAST Reporting Station
Overcast Overcast  
Wind Chill: 58°   Ceiling: 8000
Heat Index: 58°   Visibility: 10mi
Dew Point: 53°   Wind: 10mph
Humidity: 84%   Direction: 80°E
Pressure: 29.84"   Gusts: NA
Location:  46.3832°N, 124.042°W
Report Text: KAST 301155Z AUTO 08009KT 10SM OVC080 14/12 A2984 RMK AO2 RAB16E28 SLP103 P0000 60000 T01440117 10150 20133 58025
Loading
Personal Weather Stations






























Interactive Weather Map
Tropical Storm Tracking
New forecast layout! Learn more

10-Day Weather Forecast

Advertisements
Track Severe Weather on mobile